createdAt,value
2023-03-30T00:00:14.004Z,64.46
2023-03-30T00:02:44.469Z,64.19
2023-03-30T00:05:13.888Z,63.65
2023-03-30T00:07:43.249Z,64.48
2023-03-30T00:10:12.889Z,64.20
2023-03-30T00:12:40.878Z,65.74
2023-03-30T00:15:12.304Z,65.18
2023-03-30T00:17:41.320Z,66.00
2023-03-30T00:20:12.996Z,66.05
2023-03-30T00:22:41.384Z,66.92
2023-03-30T00:25:11.602Z,68.25
2023-03-30T00:27:40.293Z,68.63
2023-03-30T00:30:11.538Z,68.90
2023-03-30T00:32:39.705Z,70.51
2023-03-30T00:35:08.564Z,69.16
2023-03-30T00:37:38.388Z,69.31
2023-03-30T00:40:08.124Z,69.39
2023-03-30T00:42:36.231Z,69.35
2023-03-30T00:45:17.820Z,70.68
2023-03-30T00:47:51.718Z,71.26
2023-03-30T00:50:22.954Z,70.56
2023-03-30T00:52:55.688Z,71.40
2023-03-30T00:55:27.235Z,69.66
2023-03-30T00:57:56.430Z,71.43
2023-03-30T01:00:24.696Z,70.97
2023-03-30T01:02:58.903Z,71.19
2023-03-30T01:05:28.418Z,71.70
2023-03-30T01:08:01.074Z,71.83
2023-03-30T01:10:29.016Z,72.05
2023-03-30T01:12:56.992Z,70.96
2023-03-30T01:15:25.434Z,71.61
2023-03-30T01:18:08.783Z,72.49
2023-03-30T01:21:00.133Z,73.15
2023-03-30T01:23:54.204Z,73.80
2023-03-30T01:26:46.385Z,74.32
2023-03-30T01:29:25.038Z,74.81
2023-03-30T01:32:29.611Z,73.61
2023-03-30T01:35:22.579Z,73.39
2023-03-30T01:38:35.890Z,73.24
2023-03-30T01:41:13.378Z,72.86
2023-03-30T01:43:50.021Z,73.00
2023-03-30T01:46:25.472Z,73.08
2023-03-30T01:49:02.972Z,73.22
2023-03-30T01:51:36.704Z,73.05
2023-03-30T01:54:08.927Z,71.99
2023-03-30T01:56:43.135Z,72.60
2023-03-30T01:59:17.582Z,70.98
2023-03-30T02:01:50.334Z,71.05
2023-03-30T02:04:22.955Z,70.71
2023-03-30T02:06:56.898Z,70.81
2023-03-30T02:09:27.725Z,71.83
2023-03-30T02:11:57.909Z,72.57
2023-03-30T02:14:31.177Z,72.86
2023-03-30T02:17:01.781Z,72.69
2023-03-30T02:19:30.192Z,72.91
2023-03-30T02:21:59.124Z,72.93
2023-03-30T02:24:30.583Z,72.79
2023-03-30T02:27:01.977Z,71.87
2023-03-30T02:29:30.199Z,72.31
2023-03-30T02:32:00.575Z,72.66
2023-03-30T02:34:43.834Z,74.03
2023-03-30T02:37:32.582Z,73.58
2023-03-30T02:40:17.141Z,72.98
2023-03-30T02:42:59.985Z,72.94
2023-03-30T02:45:42.046Z,72.72
2023-03-30T02:48:22.330Z,72.73
2023-03-30T02:51:00.161Z,72.98
2023-03-30T02:54:17.975Z,73.44
2023-03-30T02:57:28.487Z,72.77
2023-03-30T03:00:13.519Z,72.27
2023-03-30T03:02:46.077Z,72.75
2023-03-30T03:05:26.245Z,73.61
2023-03-30T03:08:04.490Z,72.94
2023-03-30T03:10:36.312Z,73.38
2023-03-30T03:13:04.995Z,72.87
2023-03-30T03:15:35.583Z,73.85
2023-03-30T03:18:13.107Z,72.97
2023-03-30T03:20:42.926Z,72.99
2023-03-30T03:23:10.964Z,72.99
2023-03-30T03:25:49.442Z,72.80
2023-03-30T03:28:19.805Z,73.62
2023-03-30T03:30:52.349Z,73.62
2023-03-30T03:33:24.196Z,72.98
2023-03-30T03:36:24.475Z,72.99
2023-03-30T03:38:54.723Z,73.95
2023-03-30T03:41:22.746Z,73.94
2023-03-30T03:43:51.037Z,73.85
2023-03-30T03:46:22.239Z,75.24
2023-03-30T03:48:50.189Z,75.16
2023-03-30T03:51:18.356Z,73.63
2023-03-30T03:53:49.649Z,74.24
2023-03-30T03:56:17.674Z,73.53
2023-03-30T03:58:45.638Z,73.18
2023-03-30T04:01:14.451Z,74.66
2023-03-30T04:03:44.061Z,74.68
2023-03-30T04:06:11.972Z,74.26
2023-03-30T04:08:39.821Z,75.35
2023-03-30T04:11:29.893Z,75.47
2023-03-30T04:14:23.147Z,74.50
2023-03-30T04:17:07.623Z,74.06
2023-03-30T04:19:55.433Z,73.63
2023-03-30T04:22:36.920Z,74.29
2023-03-30T04:25:26.723Z,73.82
2023-03-30T04:28:13.352Z,73.12
2023-03-30T04:31:00.247Z,73.33
2023-03-30T04:33:52.003Z,73.26
2023-03-30T04:36:44.668Z,73.85
2023-03-30T04:39:21.738Z,75.90
2023-03-30T04:42:14.272Z,75.18
2023-03-30T04:45:21.122Z,76.01
2023-03-30T04:48:10.686Z,75.09
2023-03-30T04:51:06.222Z,74.23
2023-03-30T04:53:50.394Z,74.82
2023-03-30T04:56:38.528Z,76.32
2023-03-30T04:59:24.654Z,75.73
2023-03-30T05:02:12.069Z,75.29
2023-03-30T05:05:03.309Z,74.84
2023-03-30T05:07:50.208Z,74.78
2023-03-30T05:10:30.557Z,74.27
2023-03-30T05:13:16.932Z,73.44
2023-03-30T05:15:55.648Z,73.33
2023-03-30T05:18:47.344Z,75.46
2023-03-30T05:21:24.145Z,74.42
2023-03-30T05:23:58.360Z,75.41
2023-03-30T05:26:53.703Z,75.76
2023-03-30T05:29:51.760Z,74.42
2023-03-30T05:32:35.307Z,74.37
2023-03-30T05:35:38.819Z,74.12
2023-03-30T05:38:19.174Z,73.60
2023-03-30T05:41:03.187Z,72.44
2023-03-30T05:43:51.190Z,72.97
2023-03-30T05:46:51.205Z,73.20
2023-03-30T05:49:37.617Z,74.30
2023-03-30T05:52:28.709Z,75.05
2023-03-30T05:55:06.751Z,72.50
2023-03-30T05:57:47.363Z,71.88
2023-03-30T06:00:28.921Z,72.35
2023-03-30T06:03:06.192Z,71.58
2023-03-30T06:05:35.946Z,71.48
2023-03-30T06:08:05.576Z,73.34
2023-03-30T06:10:33.568Z,72.23
2023-03-30T06:13:01.684Z,71.56
2023-03-30T06:15:42.170Z,70.71
2023-03-30T06:18:13.993Z,71.06
2023-03-30T06:20:49.773Z,71.05
2023-03-30T06:23:18.204Z,70.52
2023-03-30T06:25:47.517Z,70.19
2023-03-30T06:28:16.126Z,70.02
2023-03-30T06:30:45.694Z,69.73
2023-03-30T06:33:14.260Z,69.06
2023-03-30T06:35:51.743Z,69.53
2023-03-30T06:38:24.095Z,68.78
2023-03-30T06:40:54.004Z,67.83
2023-03-30T06:43:26.326Z,67.77
2023-03-30T06:46:09.509Z,67.88
2023-03-30T06:48:37.516Z,68.40
2023-03-30T06:51:25.568Z,68.48
2023-03-30T06:53:54.786Z,67.97
2023-03-30T06:56:23.163Z,67.19
2023-03-30T06:59:05.413Z,67.43
2023-03-30T07:01:39.824Z,67.98
2023-03-30T07:04:34.639Z,67.33
2023-03-30T07:07:23.089Z,67.07
2023-03-30T07:09:51.256Z,67.49
2023-03-30T07:12:19.173Z,66.20
2023-03-30T07:14:48.312Z,65.72
2023-03-30T07:17:18.433Z,64.06
2023-03-30T07:19:46.415Z,63.77
2023-03-30T07:22:14.475Z,65.32
2023-03-30T07:24:42.626Z,64.02
2023-03-30T07:27:10.759Z,64.59
2023-03-30T07:29:41.269Z,60.59
2023-03-30T07:32:09.206Z,58.10
2023-03-30T07:34:38.730Z,57.30
2023-03-30T07:37:08.021Z,58.29
2023-03-30T07:39:37.194Z,57.75
2023-03-30T07:42:06.522Z,56.12
2023-03-30T07:44:34.799Z,54.56
2023-03-30T07:47:07.565Z,54.72
2023-03-30T07:49:38.728Z,54.16
2023-03-30T07:52:07.309Z,53.64
2023-03-30T07:54:47.223Z,53.71
2023-03-30T07:57:22.129Z,51.83
2023-03-30T07:59:50.739Z,51.73
2023-03-30T08:02:37.871Z,51.30
2023-03-30T08:05:11.306Z,49.84
2023-03-30T08:08:02.443Z,52.33
2023-03-30T08:10:34.353Z,51.73
2023-03-30T08:13:03.526Z,50.93
2023-03-30T08:15:31.445Z,52.42
2023-03-30T08:18:04.330Z,51.64
2023-03-30T08:20:34.828Z,50.96
2023-03-30T08:23:03.043Z,51.78
2023-03-30T08:25:31.260Z,49.26
2023-03-30T08:27:59.078Z,49.79
2023-03-30T08:30:27.150Z,48.64
2023-03-30T08:32:55.213Z,48.21
2023-03-30T08:35:23.611Z,47.97
2023-03-30T08:37:53.908Z,48.16
2023-03-30T08:40:22.615Z,48.74
2023-03-30T08:43:10.402Z,48.28
2023-03-30T08:45:42.639Z,49.44
2023-03-30T08:48:17.739Z,50.96
2023-03-30T08:50:53.536Z,49.87
2023-03-30T08:53:23.003Z,49.82
2023-03-30T08:55:54.539Z,49.38
2023-03-30T08:58:31.933Z,49.53
2023-03-30T09:01:09.261Z,48.55
2023-03-30T09:03:43.599Z,49.55
2023-03-30T09:06:20.403Z,49.53
2023-03-30T09:08:50.422Z,47.45
2023-03-30T09:11:26.083Z,48.49
2023-03-30T09:13:56.106Z,49.14
2023-03-30T09:16:34.412Z,49.49
2023-03-30T09:19:04.316Z,48.99
2023-03-30T09:21:33.014Z,48.89
2023-03-30T09:24:12.667Z,48.22
2023-03-30T09:26:50.874Z,47.50
2023-03-30T09:29:21.200Z,48.65
2023-03-30T09:31:52.968Z,48.23
2023-03-30T09:34:28.440Z,48.17
2023-03-30T09:37:00.877Z,48.42
2023-03-30T09:39:33.481Z,48.69
2023-03-30T09:42:16.283Z,48.74
2023-03-30T09:44:49.265Z,49.46
2023-03-30T09:47:20.811Z,49.56
2023-03-30T09:49:48.785Z,49.36
2023-03-30T09:52:21.951Z,48.82
2023-03-30T09:54:51.343Z,48.82
2023-03-30T09:57:28.659Z,45.67
2023-03-30T09:59:57.594Z,45.83
2023-03-30T10:02:28.644Z,46.28
2023-03-30T10:05:00.431Z,48.26
2023-03-30T10:07:31.114Z,48.66
2023-03-30T10:10:02.495Z,49.01
2023-03-30T10:12:32.022Z,48.98
2023-03-30T10:15:04.261Z,49.59
2023-03-30T10:17:32.733Z,49.89
2023-03-30T10:20:23.668Z,51.36
2023-03-30T10:22:53.672Z,51.68
2023-03-30T10:25:25.387Z,51.63
2023-03-30T10:27:56.573Z,52.18
2023-03-30T10:30:28.322Z,52.18
2023-03-30T10:32:59.950Z,51.90
2023-03-30T10:35:34.083Z,51.19
2023-03-30T10:38:03.459Z,50.47
2023-03-30T10:40:37.664Z,50.40
2023-03-30T10:43:09.606Z,51.31
2023-03-30T10:45:41.759Z,50.56
2023-03-30T10:48:23.447Z,51.69
2023-03-30T10:50:57.505Z,51.22
2023-03-30T10:53:34.930Z,50.52
2023-03-30T10:56:17.345Z,50.29
2023-03-30T10:59:06.105Z,48.17
2023-03-30T11:01:42.970Z,48.78
2023-03-30T11:04:23.665Z,48.29
2023-03-30T11:06:56.881Z,48.81
2023-03-30T11:09:30.114Z,48.96
2023-03-30T11:12:04.249Z,48.93
2023-03-30T11:14:40.910Z,49.66
2023-03-30T11:17:13.914Z,50.00
2023-03-30T11:19:48.132Z,49.62
2023-03-30T11:22:25.377Z,49.43
2023-03-30T11:24:56.809Z,49.93
2023-03-30T11:27:30.840Z,49.94
2023-03-30T11:30:04.805Z,50.46
2023-03-30T11:32:39.171Z,51.43
2023-03-30T11:35:15.323Z,50.10
2023-03-30T11:37:49.380Z,50.21
2023-03-30T11:40:19.465Z,48.42
2023-03-30T11:42:49.758Z,48.59
2023-03-30T11:45:23.084Z,49.60
2023-03-30T11:48:05.415Z,48.65
2023-03-30T11:50:45.895Z,47.67
2023-03-30T11:53:24.811Z,47.41
2023-03-30T11:56:11.477Z,47.32
2023-03-30T11:58:47.104Z,47.76
2023-03-30T12:01:32.812Z,46.73
2023-03-30T12:04:07.931Z,46.55
2023-03-30T12:06:41.735Z,46.61
2023-03-30T12:09:28.834Z,47.82
2023-03-30T12:12:04.377Z,46.66
2023-03-30T12:14:48.623Z,46.06
2023-03-30T12:17:30.583Z,45.78
2023-03-30T12:20:04.514Z,46.91
2023-03-30T12:22:38.064Z,46.49
2023-03-30T12:25:17.437Z,45.61
2023-03-30T12:27:59.925Z,46.72
2023-03-30T12:30:32.453Z,46.83
2023-03-30T12:33:12.118Z,45.55
2023-03-30T12:35:58.345Z,47.73
2023-03-30T12:38:29.881Z,46.70
2023-03-30T12:41:14.601Z,47.13
2023-03-30T12:44:04.226Z,47.32
2023-03-30T12:46:41.879Z,47.62
2023-03-30T12:49:18.807Z,47.05
2023-03-30T12:52:05.077Z,45.90
2023-03-30T12:55:01.082Z,46.31
2023-03-30T12:57:39.330Z,45.41
2023-03-30T13:00:41.015Z,45.45
2023-03-30T13:03:32.300Z,45.66
2023-03-30T13:06:02.583Z,45.97
2023-03-30T13:08:36.464Z,46.00
2023-03-30T13:11:18.516Z,46.67
2023-03-30T13:13:57.304Z,46.45
2023-03-30T13:16:47.960Z,45.22
2023-03-30T13:19:25.857Z,47.13
2023-03-30T13:21:58.855Z,45.99
2023-03-30T13:24:36.903Z,46.49
2023-03-30T13:27:31.703Z,46.10
2023-03-30T13:30:03.957Z,47.21
2023-03-30T13:33:00.340Z,47.57
2023-03-30T13:35:41.894Z,47.68
2023-03-30T13:38:34.086Z,47.79
2023-03-30T13:41:14.514Z,47.58
2023-03-30T13:43:53.056Z,47.32
2023-03-30T13:46:30.145Z,50.68
2023-03-30T13:49:18.471Z,53.08
2023-03-30T13:51:49.172Z,54.70
2023-03-30T13:54:21.407Z,57.07
2023-03-30T13:56:55.436Z,64.57
2023-03-30T13:59:28.490Z,70.60
2023-03-30T14:02:02.453Z,73.93
2023-03-30T14:04:32.900Z,76.54
2023-03-30T14:07:16.132Z,77.37
2023-03-30T14:10:02.875Z,77.25
2023-03-30T14:12:32.721Z,76.04
2023-03-30T14:15:01.176Z,78.89
2023-03-30T14:17:32.259Z,77.32
2023-03-30T14:20:16.393Z,76.49
2023-03-30T14:22:48.273Z,78.55
2023-03-30T14:25:28.788Z,76.47
2023-03-30T14:27:58.402Z,78.03
2023-03-30T14:30:29.720Z,76.86
2023-03-30T14:33:09.306Z,76.39
2023-03-30T14:35:42.500Z,76.20
2023-03-30T14:38:17.211Z,75.72
2023-03-30T14:40:45.682Z,76.69
2023-03-30T14:43:15.801Z,77.24
2023-03-30T14:45:44.209Z,76.47
2023-03-30T14:48:21.222Z,79.47
2023-03-30T14:50:50.031Z,77.83
2023-03-30T14:53:25.193Z,78.29
2023-03-30T14:55:57.163Z,77.79
2023-03-30T14:58:26.847Z,77.90
2023-03-30T15:00:58.723Z,78.64
2023-03-30T15:03:33.784Z,79.71
2023-03-30T15:06:03.345Z,77.83
2023-03-30T15:08:37.373Z,78.07
2023-03-30T15:11:10.178Z,79.66
2023-03-30T15:13:41.846Z,78.71
2023-03-30T15:16:15.615Z,78.97
2023-03-30T15:18:43.792Z,80.17
2023-03-30T15:21:13.981Z,79.66
2023-03-30T15:23:45.779Z,80.31
2023-03-30T15:26:14.304Z,80.39
2023-03-30T15:28:46.846Z,79.69
2023-03-30T15:31:16.345Z,79.81
2023-03-30T15:33:46.599Z,77.70
2023-03-30T15:36:19.499Z,78.18
2023-03-30T15:38:54.405Z,77.19
2023-03-30T15:41:24.960Z,77.92
2023-03-30T15:43:58.130Z,77.95
2023-03-30T15:46:27.984Z,78.87
2023-03-30T15:48:59.506Z,77.67
2023-03-30T15:51:33.144Z,77.06
2023-03-30T15:54:04.347Z,79.97
2023-03-30T15:56:38.136Z,78.15
2023-03-30T15:59:11.629Z,76.36
2023-03-30T16:01:45.334Z,77.48
2023-03-30T16:04:16.158Z,77.65
2023-03-30T16:06:46.669Z,78.57
2023-03-30T16:09:16.951Z,77.90
2023-03-30T16:11:46.456Z,78.34
2023-03-30T16:14:16.250Z,78.76
2023-03-30T16:16:45.000Z,79.02
2023-03-30T16:19:13.623Z,76.04
2023-03-30T16:21:43.292Z,76.38
2023-03-30T16:24:13.239Z,77.06
2023-03-30T16:26:42.687Z,79.30
2023-03-30T16:29:19.661Z,76.96
2023-03-30T16:31:47.751Z,75.85
2023-03-30T16:34:15.856Z,77.41
2023-03-30T16:36:44.130Z,76.70
2023-03-30T16:39:17.962Z,76.98
2023-03-30T16:41:48.317Z,77.42
2023-03-30T16:44:16.967Z,78.26
2023-03-30T16:46:45.343Z,76.33
2023-03-30T16:49:15.443Z,76.95
2023-03-30T16:51:44.064Z,77.67
2023-03-30T16:54:27.224Z,77.15
2023-03-30T16:57:00.438Z,77.73
2023-03-30T16:59:30.366Z,76.55
2023-03-30T17:01:58.922Z,77.58
2023-03-30T17:04:27.073Z,76.36
2023-03-30T17:06:55.759Z,76.91
2023-03-30T17:09:24.412Z,76.15
2023-03-30T17:11:52.442Z,76.84
2023-03-30T17:14:23.321Z,77.47
2023-03-30T17:16:51.505Z,76.03
2023-03-30T17:19:19.538Z,74.54
2023-03-30T17:21:47.582Z,76.23
2023-03-30T17:24:16.972Z,75.72
2023-03-30T17:26:45.103Z,76.94
2023-03-30T17:29:13.026Z,77.30
2023-03-30T17:31:45.734Z,78.88
2023-03-30T17:34:14.633Z,77.75
2023-03-30T17:36:42.737Z,78.06
2023-03-30T17:39:13.961Z,78.26
2023-03-30T17:41:42.210Z,78.64
2023-03-30T17:44:10.148Z,79.04
2023-03-30T17:46:38.058Z,78.95
2023-03-30T17:49:16.804Z,79.45
2023-03-30T17:51:44.776Z,78.60
2023-03-30T17:54:12.700Z,78.82
2023-03-30T17:56:40.635Z,79.99
2023-03-30T17:59:11.290Z,79.65
2023-03-30T18:01:39.335Z,79.44
2023-03-30T18:04:09.190Z,80.20
2023-03-30T18:06:37.299Z,80.11
2023-03-30T18:09:05.370Z,80.19
2023-03-30T18:11:33.686Z,80.25
2023-03-30T18:14:02.094Z,81.36
2023-03-30T18:16:30.996Z,81.91
2023-03-30T18:18:59.404Z,80.66
2023-03-30T18:21:28.811Z,81.66
2023-03-30T18:23:56.991Z,82.13
2023-03-30T18:26:24.952Z,81.24
2023-03-30T18:28:52.812Z,81.76
2023-03-30T18:31:20.994Z,80.82
2023-03-30T18:33:50.458Z,81.98
2023-03-30T18:36:21.407Z,81.93
2023-03-30T18:38:50.721Z,82.09
2023-03-30T18:41:18.907Z,81.84
2023-03-30T18:43:46.841Z,81.75
2023-03-30T18:46:14.820Z,81.89
2023-03-30T18:48:42.832Z,81.86
2023-03-30T18:51:12.055Z,81.52
2023-03-30T18:53:40.009Z,82.53
2023-03-30T18:56:13.628Z,81.60
2023-03-30T18:58:42.791Z,81.83
2023-03-30T19:01:13.268Z,81.75
2023-03-30T19:03:42.170Z,80.88
2023-03-30T19:06:13.800Z,80.39
2023-03-30T19:08:43.544Z,80.44
2023-03-30T19:11:14.907Z,80.66
2023-03-30T19:13:42.812Z,81.48
2023-03-30T19:16:11.234Z,80.65
2023-03-30T19:18:39.221Z,77.08
2023-03-30T19:21:07.339Z,76.69
2023-03-30T19:23:35.693Z,75.54
2023-03-30T19:26:03.711Z,72.60
2023-03-30T19:28:33.336Z,71.43
2023-03-30T19:31:05.376Z,71.85
2023-03-30T19:33:33.485Z,71.80
2023-03-30T19:36:01.374Z,72.03
2023-03-30T19:38:29.408Z,72.73
2023-03-30T19:41:01.290Z,73.77
2023-03-30T19:43:29.710Z,73.10
2023-03-30T19:45:58.986Z,74.43
2023-03-30T19:48:27.346Z,73.66
2023-03-30T19:50:55.361Z,73.42
2023-03-30T19:53:23.980Z,74.70
2023-03-30T19:55:52.020Z,76.35
2023-03-30T19:58:20.038Z,76.99
2023-03-30T20:00:49.622Z,78.02
2023-03-30T20:03:19.301Z,76.65
2023-03-30T20:05:51.166Z,77.18
2023-03-30T20:08:24.390Z,76.74
2023-03-30T20:10:53.672Z,76.66
2023-03-30T20:13:23.926Z,76.25
2023-03-30T20:15:55.873Z,77.67
2023-03-30T20:18:25.426Z,77.38
2023-03-30T20:20:53.625Z,77.62
2023-03-30T20:23:21.545Z,77.02
2023-03-30T20:25:56.695Z,77.25
2023-03-30T20:28:24.704Z,76.94
2023-03-30T20:30:56.464Z,76.03
2023-03-30T20:33:26.234Z,74.72
2023-03-30T20:35:55.073Z,74.03
2023-03-30T20:38:23.037Z,74.05
2023-03-30T20:40:56.302Z,74.05
2023-03-30T20:43:25.928Z,74.19
2023-03-30T20:46:02.407Z,73.83
2023-03-30T20:48:33.754Z,73.91
2023-03-30T20:51:03.667Z,74.08
2023-03-30T20:53:32.209Z,74.82
2023-03-30T20:56:00.542Z,73.25
2023-03-30T20:58:29.546Z,73.83
2023-03-30T21:00:58.999Z,72.60
2023-03-30T21:03:29.229Z,73.51
2023-03-30T21:06:04.079Z,73.12
2023-03-30T21:08:33.315Z,73.33
2023-03-30T21:11:02.233Z,73.79
2023-03-30T21:13:30.471Z,73.39
2023-03-30T21:15:58.975Z,73.27
2023-03-30T21:18:27.188Z,73.39
2023-03-30T21:20:55.315Z,73.89
2023-03-30T21:23:26.766Z,73.73
2023-03-30T21:25:57.310Z,74.29
2023-03-30T21:28:27.236Z,72.98
2023-03-30T21:30:56.717Z,73.52
2023-03-30T21:33:26.239Z,72.97
2023-03-30T21:35:54.999Z,73.33
2023-03-30T21:38:26.236Z,73.28
2023-03-30T21:40:58.889Z,72.95
2023-03-30T21:43:27.377Z,73.13
2023-03-30T21:45:56.729Z,72.92
2023-03-30T21:48:25.278Z,73.24
2023-03-30T21:50:59.801Z,72.90
2023-03-30T21:53:30.619Z,73.93
2023-03-30T21:55:58.754Z,73.14
2023-03-30T21:58:27.765Z,74.63
2023-03-30T22:01:08.948Z,74.55
2023-03-30T22:03:41.297Z,74.19
2023-03-30T22:06:11.054Z,74.54
2023-03-30T22:08:40.451Z,74.32
2023-03-30T22:11:10.325Z,74.54
2023-03-30T22:13:38.507Z,73.86
2023-03-30T22:16:09.173Z,75.01
2023-03-30T22:18:37.371Z,73.77
2023-03-30T22:21:07.613Z,73.90
2023-03-30T22:23:36.126Z,73.22
2023-03-30T22:26:06.616Z,73.72
2023-03-30T22:28:35.042Z,74.67
2023-03-30T22:31:03.463Z,74.29
2023-03-30T22:33:31.687Z,73.47
2023-03-30T22:35:59.962Z,75.45
2023-03-30T22:38:27.995Z,74.08
2023-03-30T22:41:05.484Z,73.67
2023-03-30T22:43:36.200Z,75.37
2023-03-30T22:46:04.497Z,74.74
2023-03-30T22:48:33.328Z,75.14
2023-03-30T22:51:03.261Z,74.01
2023-03-30T22:53:32.087Z,74.71
2023-03-30T22:56:00.239Z,74.67
2023-03-30T22:58:28.423Z,74.97
2023-03-30T23:01:02.206Z,73.83
2023-03-30T23:03:30.660Z,74.43
2023-03-30T23:06:01.188Z,75.73
2023-03-30T23:08:30.524Z,75.21
2023-03-30T23:11:04.856Z,75.74
2023-03-30T23:13:37.612Z,74.33
2023-03-30T23:16:08.388Z,75.62
2023-03-30T23:18:36.545Z,74.54
2023-03-30T23:21:06.800Z,75.71
2023-03-30T23:23:35.358Z,74.59
2023-03-30T23:26:08.798Z,74.17
2023-03-30T23:28:39.579Z,73.09
2023-03-30T23:31:10.178Z,74.67
2023-03-30T23:33:38.075Z,73.25
2023-03-30T23:36:07.325Z,73.82
2023-03-30T23:38:36.022Z,73.61
2023-03-30T23:41:04.190Z,72.70
2023-03-30T23:43:32.108Z,72.45
2023-03-30T23:45:59.993Z,72.06
2023-03-30T23:48:29.274Z,73.29
2023-03-30T23:50:57.657Z,72.99
2023-03-30T23:53:26.340Z,73.74
2023-03-30T23:55:54.666Z,73.64
2023-03-30T23:58:22.974Z,72.55
